DTTJ/DJE METAR and TAF weather

Enter ICAO airport designator
Station Type Date Time Source
DTTJ METAR 2020/02/21 15:30 UTC NOAA

DTTJ 211530Z VRB01KT 9999 FEW023 17/06 Q1025 NOSIG


Station Type Date Time Source
DTTJ Decoded METAR 2020/02/21 15:30 UTC NOAA

Djerba Mellita, Tunisia (DTTJ) 33-52N 010-46E 4M
Feb 21, 2020 - 10:30 AM EST / 2020.02.21 1530 UTC
Wind: Variable at 1 MPH (1 KT):0
Visibility: greater than 7 mile(s):0
Sky conditions: mostly clear
Temperature: 62 F (17 C)
Dew Point: 42 F (6 C)
Relative Humidity: 48%
Pressure (altimeter): 30.27 in. Hg (1025 hPa)
ob: DTTJ 211530Z VRB01KT 9999 FEW023 17/06 Q1025 NOSIG
cycle: 15

Station Type Date Time Source
DTTJ TAF 2020/02/21 12:42 UTC NOAA

TAF DTTJ 211100Z 2112/2212 36007KT 9999 FEW016 SCT030

Example: see airport list